sensor_id;sensor_type;location;lat;lon;timestamp;P1;durP1;ratioP1;P2;durP2;ratioP2
40781;SDS011;26493;51.938;7.626;2023-05-19T00:00:59;25.00;;;10.55;;
40781;SDS011;26493;51.938;7.626;2023-05-19T00:03:25;21.35;;;9.93;;
40781;SDS011;26493;51.938;7.626;2023-05-19T00:05:52;17.58;;;10.40;;
40781;SDS011;26493;51.938;7.626;2023-05-19T00:08:18;18.33;;;10.13;;
40781;SDS011;26493;51.938;7.626;2023-05-19T00:10:45;20.52;;;10.55;;
40781;SDS011;26493;51.938;7.626;2023-05-19T00:13:11;23.08;;;10.50;;
40781;SDS011;26493;51.938;7.626;2023-05-19T00:15:37;20.42;;;10.27;;
40781;SDS011;26493;51.938;7.626;2023-05-19T00:18:04;19.40;;;10.60;;
40781;SDS011;26493;51.938;7.626;2023-05-19T00:22:58;22.23;;;10.60;;
40781;SDS011;26493;51.938;7.626;2023-05-19T00:25:24;17.80;;;10.10;;
40781;SDS011;26493;51.938;7.626;2023-05-19T00:27:51;20.17;;;10.63;;
40781;SDS011;26493;51.938;7.626;2023-05-19T00:30:17;19.13;;;10.32;;
40781;SDS011;26493;51.938;7.626;2023-05-19T00:32:42;23.80;;;11.15;;
40781;SDS011;26493;51.938;7.626;2023-05-19T00:35:08;18.85;;;10.55;;
40781;SDS011;26493;51.938;7.626;2023-05-19T00:37:35;20.98;;;10.88;;
40781;SDS011;26493;51.938;7.626;2023-05-19T00:40:01;17.17;;;10.45;;
40781;SDS011;26493;51.938;7.626;2023-05-19T00:44:56;24.88;;;10.95;;
40781;SDS011;26493;51.938;7.626;2023-05-19T00:47:22;23.02;;;10.65;;
40781;SDS011;26493;51.938;7.626;2023-05-19T00:49:48;21.67;;;10.50;;
40781;SDS011;26493;51.938;7.626;2023-05-19T00:52:14;19.00;;;9.88;;
40781;SDS011;26493;51.938;7.626;2023-05-19T00:54:40;19.55;;;9.95;;
40781;SDS011;26493;51.938;7.626;2023-05-19T00:57:07;22.73;;;11.15;;
40781;SDS011;26493;51.938;7.626;2023-05-19T00:59:33;20.48;;;9.50;;
40781;SDS011;26493;51.938;7.626;2023-05-19T01:02:00;22.02;;;11.13;;
40781;SDS011;26493;51.938;7.626;2023-05-19T01:04:27;18.98;;;9.63;;
40781;SDS011;26493;51.938;7.626;2023-05-19T01:06:53;18.05;;;9.25;;
40781;SDS011;26493;51.938;7.626;2023-05-19T01:09:22;22.80;;;10.57;;
40781;SDS011;26493;51.938;7.626;2023-05-19T01:11:49;22.02;;;10.35;;
40781;SDS011;26493;51.938;7.626;2023-05-19T01:14:15;23.92;;;10.65;;
40781;SDS011;26493;51.938;7.626;2023-05-19T01:16:59;19.88;;;10.05;;
40781;SDS011;26493;51.938;7.626;2023-05-19T01:32:23;17.83;;;10.00;;
40781;SDS011;26493;51.938;7.626;2023-05-19T01:34:50;21.38;;;10.95;;
40781;SDS011;26493;51.938;7.626;2023-05-19T01:37:17;21.08;;;9.95;;
40781;SDS011;26493;51.938;7.626;2023-05-19T01:39:44;19.88;;;9.65;;
40781;SDS011;26493;51.938;7.626;2023-05-19T01:42:10;22.88;;;9.85;;
40781;SDS011;26493;51.938;7.626;2023-05-19T01:44:37;21.13;;;10.57;;
40781;SDS011;26493;51.938;7.626;2023-05-19T01:47:03;19.92;;;10.45;;
40781;SDS011;26493;51.938;7.626;2023-05-19T01:49:29;18.73;;;10.45;;
40781;SDS011;26493;51.938;7.626;2023-05-19T01:51:55;21.35;;;10.75;;
40781;SDS011;26493;51.938;7.626;2023-05-19T01:54:21;21.33;;;11.15;;
40781;SDS011;26493;51.938;7.626;2023-05-19T01:59:26;20.85;;;10.10;;
40781;SDS011;26493;51.938;7.626;2023-05-19T02:01:58;21.35;;;11.23;;
40781;SDS011;26493;51.938;7.626;2023-05-19T02:07:31;21.27;;;10.93;;
40781;SDS011;26493;51.938;7.626;2023-05-19T02:10:33;25.02;;;11.20;;
40781;SDS011;26493;51.938;7.626;2023-05-19T02:12:54;21.38;;;9.65;;
40781;SDS011;26493;51.938;7.626;2023-05-19T02:15:24;19.65;;;10.65;;
40781;SDS011;26493;51.938;7.626;2023-05-19T02:17:51;19.40;;;10.25;;
40781;SDS011;26493;51.938;7.626;2023-05-19T02:20:18;21.10;;;10.82;;
40781;SDS011;26493;51.938;7.626;2023-05-19T02:22:46;23.97;;;11.57;;
40781;SDS011;26493;51.938;7.626;2023-05-19T02:25:13;20.60;;;10.43;;
40781;SDS011;26493;51.938;7.626;2023-05-19T02:27:40;20.30;;;10.38;;
40781;SDS011;26493;51.938;7.626;2023-05-19T02:30:07;22.35;;;11.48;;
40781;SDS011;26493;51.938;7.626;2023-05-19T02:32:33;19.95;;;10.45;;
40781;SDS011;26493;51.938;7.626;2023-05-19T02:35:00;21.42;;;11.15;;
40781;SDS011;26493;51.938;7.626;2023-05-19T02:37:26;21.20;;;11.10;;
40781;SDS011;26493;51.938;7.626;2023-05-19T02:39:55;21.02;;;10.45;;
40781;SDS011;26493;51.938;7.626;2023-05-19T02:42:21;21.08;;;10.43;;
40781;SDS011;26493;51.938;7.626;2023-05-19T02:44:47;21.30;;;10.35;;
40781;SDS011;26493;51.938;7.626;2023-05-19T02:47:13;20.83;;;10.32;;
40781;SDS011;26493;51.938;7.626;2023-05-19T02:49:39;20.88;;;11.40;;
40781;SDS011;26493;51.938;7.626;2023-05-19T02:52:06;22.90;;;10.80;;
40781;SDS011;26493;51.938;7.626;2023-05-19T02:54:33;18.95;;;10.65;;
40781;SDS011;26493;51.938;7.626;2023-05-19T02:56:59;20.88;;;11.00;;
40781;SDS011;26493;51.938;7.626;2023-05-19T02:59:25;20.85;;;10.98;;
40781;SDS011;26493;51.938;7.626;2023-05-19T03:01:55;20.92;;;11.30;;
40781;SDS011;26493;51.938;7.626;2023-05-19T03:04:21;20.55;;;10.35;;
40781;SDS011;26493;51.938;7.626;2023-05-19T03:06:47;26.15;;;11.65;;
40781;SDS011;26493;51.938;7.626;2023-05-19T03:09:14;21.58;;;10.55;;
40781;SDS011;26493;51.938;7.626;2023-05-19T03:11:40;23.77;;;10.88;;
40781;SDS011;26493;51.938;7.626;2023-05-19T03:14:06;21.55;;;10.93;;
40781;SDS011;26493;51.938;7.626;2023-05-19T03:16:35;20.83;;;10.95;;
40781;SDS011;26493;51.938;7.626;2023-05-19T03:19:01;22.77;;;10.90;;
40781;SDS011;26493;51.938;7.626;2023-05-19T03:21:27;21.60;;;10.48;;
40781;SDS011;26493;51.938;7.626;2023-05-19T03:23:54;22.65;;;11.27;;
40781;SDS011;26493;51.938;7.626;2023-05-19T03:26:20;21.58;;;10.77;;
40781;SDS011;26493;51.938;7.626;2023-05-19T03:28:47;23.38;;;11.18;;
40781;SDS011;26493;51.938;7.626;2023-05-19T03:31:13;21.77;;;10.65;;
40781;SDS011;26493;51.938;7.626;2023-05-19T03:33:38;20.05;;;11.13;;
40781;SDS011;26493;51.938;7.626;2023-05-19T03:36:05;24.73;;;11.57;;
40781;SDS011;26493;51.938;7.626;2023-05-19T03:38:31;23.70;;;10.95;;
40781;SDS011;26493;51.938;7.626;2023-05-19T03:40:57;22.55;;;11.30;;
40781;SDS011;26493;51.938;7.626;2023-05-19T03:43:23;22.48;;;10.18;;
40781;SDS011;26493;51.938;7.626;2023-05-19T03:45:49;19.65;;;10.40;;
40781;SDS011;26493;51.938;7.626;2023-05-19T03:48:15;22.17;;;11.23;;
40781;SDS011;26493;51.938;7.626;2023-05-19T03:50:41;20.65;;;10.15;;
40781;SDS011;26493;51.938;7.626;2023-05-19T03:53:08;21.00;;;10.80;;
40781;SDS011;26493;51.938;7.626;2023-05-19T03:55:34;21.15;;;10.25;;
40781;SDS011;26493;51.938;7.626;2023-05-19T03:58:01;23.80;;;10.98;;
40781;SDS011;26493;51.938;7.626;2023-05-19T04:00:27;19.63;;;10.35;;
40781;SDS011;26493;51.938;7.626;2023-05-19T04:02:53;22.20;;;10.93;;
40781;SDS011;26493;51.938;7.626;2023-05-19T04:05:19;20.10;;;10.32;;
40781;SDS011;26493;51.938;7.626;2023-05-19T04:07:45;25.63;;;11.40;;
40781;SDS011;26493;51.938;7.626;2023-05-19T04:10:11;21.67;;;11.75;;
40781;SDS011;26493;51.938;7.626;2023-05-19T04:12:37;22.35;;;10.15;;
40781;SDS011;26493;51.938;7.626;2023-05-19T04:15:03;24.35;;;11.88;;
40781;SDS011;26493;51.938;7.626;2023-05-19T04:17:35;21.95;;;10.02;;
40781;SDS011;26493;51.938;7.626;2023-05-19T04:20:01;23.17;;;10.77;;
40781;SDS011;26493;51.938;7.626;2023-05-19T04:22:27;19.95;;;10.18;;
40781;SDS011;26493;51.938;7.626;2023-05-19T04:24:53;23.05;;;10.40;;
40781;SDS011;26493;51.938;7.626;2023-05-19T04:27:20;23.17;;;11.18;;
40781;SDS011;26493;51.938;7.626;2023-05-19T04:29:46;22.77;;;10.57;;
40781;SDS011;26493;51.938;7.626;2023-05-19T04:32:12;20.75;;;9.60;;
40781;SDS011;26493;51.938;7.626;2023-05-19T04:34:41;20.05;;;11.63;;
40781;SDS011;26493;51.938;7.626;2023-05-19T04:37:10;24.67;;;10.15;;
40781;SDS011;26493;51.938;7.626;2023-05-19T04:39:36;20.67;;;10.68;;
40781;SDS011;26493;51.938;7.626;2023-05-19T04:42:09;22.25;;;10.13;;
40781;SDS011;26493;51.938;7.626;2023-05-19T04:44:36;21.08;;;10.35;;
40781;SDS011;26493;51.938;7.626;2023-05-19T04:47:04;18.88;;;9.93;;
40781;SDS011;26493;51.938;7.626;2023-05-19T04:49:31;20.92;;;10.43;;
40781;SDS011;26493;51.938;7.626;2023-05-19T04:51:57;20.17;;;10.38;;
40781;SDS011;26493;51.938;7.626;2023-05-19T04:54:23;18.95;;;10.23;;
40781;SDS011;26493;51.938;7.626;2023-05-19T04:56:48;22.13;;;11.85;;
40781;SDS011;26493;51.938;7.626;2023-05-19T04:59:14;21.15;;;11.30;;
40781;SDS011;26493;51.938;7.626;2023-05-19T05:01:40;21.40;;;10.55;;
40781;SDS011;26493;51.938;7.626;2023-05-19T05:04:07;24.80;;;11.05;;
40781;SDS011;26493;51.938;7.626;2023-05-19T05:06:33;21.35;;;10.77;;
40781;SDS011;26493;51.938;7.626;2023-05-19T05:09:02;19.55;;;10.43;;
40781;SDS011;26493;51.938;7.626;2023-05-19T05:11:28;20.60;;;10.40;;
40781;SDS011;26493;51.938;7.626;2023-05-19T05:13:54;19.35;;;10.95;;
40781;SDS011;26493;51.938;7.626;2023-05-19T05:16:22;19.45;;;10.65;;
40781;SDS011;26493;51.938;7.626;2023-05-19T05:18:48;20.60;;;9.73;;
40781;SDS011;26493;51.938;7.626;2023-05-19T05:21:14;20.08;;;10.15;;
40781;SDS011;26493;51.938;7.626;2023-05-19T05:23:40;20.55;;;10.20;;
40781;SDS011;26493;51.938;7.626;2023-05-19T05:26:08;21.52;;;11.38;;
40781;SDS011;26493;51.938;7.626;2023-05-19T05:31:01;20.00;;;10.05;;
40781;SDS011;26493;51.938;7.626;2023-05-19T05:33:27;22.10;;;10.93;;
40781;SDS011;26493;51.938;7.626;2023-05-19T05:35:53;21.65;;;10.80;;
40781;SDS011;26493;51.938;7.626;2023-05-19T05:38:19;18.27;;;10.02;;
40781;SDS011;26493;51.938;7.626;2023-05-19T05:40:45;19.35;;;10.45;;
40781;SDS011;26493;51.938;7.626;2023-05-19T05:43:11;24.67;;;11.02;;
40781;SDS011;26493;51.938;7.626;2023-05-19T05:45:37;18.48;;;10.30;;
40781;SDS011;26493;51.938;7.626;2023-05-19T05:48:03;19.42;;;10.68;;
40781;SDS011;26493;51.938;7.626;2023-05-19T05:50:29;19.80;;;10.25;;
40781;SDS011;26493;51.938;7.626;2023-05-19T05:52:55;18.42;;;10.27;;
40781;SDS011;26493;51.938;7.626;2023-05-19T05:55:22;20.77;;;10.88;;
40781;SDS011;26493;51.938;7.626;2023-05-19T05:57:48;19.30;;;10.60;;
40781;SDS011;26493;51.938;7.626;2023-05-19T06:00:14;21.08;;;10.80;;
40781;SDS011;26493;51.938;7.626;2023-05-19T06:02:44;19.23;;;10.68;;
40781;SDS011;26493;51.938;7.626;2023-05-19T06:05:11;18.67;;;10.65;;
40781;SDS011;26493;51.938;7.626;2023-05-19T06:07:38;20.25;;;10.93;;
40781;SDS011;26493;51.938;7.626;2023-05-19T06:10:04;21.23;;;10.98;;
40781;SDS011;26493;51.938;7.626;2023-05-19T06:12:31;20.83;;;10.52;;
40781;SDS011;26493;51.938;7.626;2023-05-19T06:14:57;18.23;;;10.45;;
40781;SDS011;26493;51.938;7.626;2023-05-19T06:17:23;19.33;;;10.82;;
40781;SDS011;26493;51.938;7.626;2023-05-19T06:19:48;18.88;;;9.45;;
40781;SDS011;26493;51.938;7.626;2023-05-19T06:22:15;23.98;;;11.48;;
40781;SDS011;26493;51.938;7.626;2023-05-19T06:24:40;21.77;;;10.95;;
40781;SDS011;26493;51.938;7.626;2023-05-19T06:27:06;18.58;;;11.23;;
40781;SDS011;26493;51.938;7.626;2023-05-19T06:29:32;20.10;;;10.45;;
40781;SDS011;26493;51.938;7.626;2023-05-19T06:31:58;23.13;;;10.80;;
40781;SDS011;26493;51.938;7.626;2023-05-19T06:34:24;18.92;;;10.50;;
40781;SDS011;26493;51.938;7.626;2023-05-19T06:36:50;20.77;;;10.80;;
40781;SDS011;26493;51.938;7.626;2023-05-19T06:39:16;18.13;;;10.77;;
40781;SDS011;26493;51.938;7.626;2023-05-19T06:41:42;20.42;;;11.02;;
40781;SDS011;26493;51.938;7.626;2023-05-19T06:44:08;18.90;;;11.23;;
40781;SDS011;26493;51.938;7.626;2023-05-19T06:46:34;19.48;;;11.27;;
40781;SDS011;26493;51.938;7.626;2023-05-19T06:49:00;18.17;;;10.63;;
40781;SDS011;26493;51.938;7.626;2023-05-19T06:51:26;18.73;;;10.82;;
40781;SDS011;26493;51.938;7.626;2023-05-19T06:53:52;25.88;;;11.70;;
40781;SDS011;26493;51.938;7.626;2023-05-19T06:56:19;20.80;;;11.10;;
40781;SDS011;26493;51.938;7.626;2023-05-19T06:58:46;21.25;;;10.23;;
40781;SDS011;26493;51.938;7.626;2023-05-19T07:01:12;18.05;;;10.32;;
40781;SDS011;26493;51.938;7.626;2023-05-19T07:03:38;20.40;;;11.77;;
40781;SDS011;26493;51.938;7.626;2023-05-19T07:06:04;17.15;;;10.07;;
40781;SDS011;26493;51.938;7.626;2023-05-19T07:08:30;18.48;;;11.20;;
40781;SDS011;26493;51.938;7.626;2023-05-19T07:10:56;22.50;;;11.18;;
40781;SDS011;26493;51.938;7.626;2023-05-19T07:13:22;18.25;;;9.45;;
40781;SDS011;26493;51.938;7.626;2023-05-19T07:15:48;19.98;;;10.07;;
40781;SDS011;26493;51.938;7.626;2023-05-19T07:18:16;19.70;;;11.10;;
40781;SDS011;26493;51.938;7.626;2023-05-19T07:20:42;19.15;;;10.93;;
40781;SDS011;26493;51.938;7.626;2023-05-19T07:23:08;19.83;;;11.15;;
40781;SDS011;26493;51.938;7.626;2023-05-19T07:25:34;18.95;;;11.30;;
40781;SDS011;26493;51.938;7.626;2023-05-19T07:28:00;18.23;;;10.85;;
40781;SDS011;26493;51.938;7.626;2023-05-19T07:30:26;18.42;;;11.23;;
40781;SDS011;26493;51.938;7.626;2023-05-19T07:32:52;17.80;;;11.23;;
40781;SDS011;26493;51.938;7.626;2023-05-19T07:35:18;19.85;;;10.95;;
40781;SDS011;26493;51.938;7.626;2023-05-19T07:37:46;17.48;;;11.20;;
40781;SDS011;26493;51.938;7.626;2023-05-19T07:40:12;19.23;;;11.10;;
40781;SDS011;26493;51.938;7.626;2023-05-19T07:42:39;21.33;;;11.60;;
40781;SDS011;26493;51.938;7.626;2023-05-19T07:45:05;23.27;;;12.25;;
40781;SDS011;26493;51.938;7.626;2023-05-19T07:47:31;17.95;;;11.07;;
40781;SDS011;26493;51.938;7.626;2023-05-19T07:49:57;18.25;;;10.82;;
40781;SDS011;26493;51.938;7.626;2023-05-19T07:52:23;18.25;;;10.88;;
40781;SDS011;26493;51.938;7.626;2023-05-19T07:54:49;19.02;;;10.77;;
40781;SDS011;26493;51.938;7.626;2023-05-19T07:57:15;19.02;;;11.05;;
40781;SDS011;26493;51.938;7.626;2023-05-19T07:59:42;18.17;;;10.80;;
40781;SDS011;26493;51.938;7.626;2023-05-19T08:02:08;19.52;;;11.38;;
40781;SDS011;26493;51.938;7.626;2023-05-19T08:04:34;17.80;;;11.48;;
40781;SDS011;26493;51.938;7.626;2023-05-19T08:07:00;20.20;;;11.45;;
40781;SDS011;26493;51.938;7.626;2023-05-19T08:09:27;21.55;;;10.88;;
40781;SDS011;26493;51.938;7.626;2023-05-19T08:11:53;18.15;;;11.35;;
40781;SDS011;26493;51.938;7.626;2023-05-19T08:14:19;16.77;;;10.80;;
40781;SDS011;26493;51.938;7.626;2023-05-19T08:16:46;18.52;;;10.38;;
40781;SDS011;26493;51.938;7.626;2023-05-19T08:19:12;19.33;;;10.30;;
40781;SDS011;26493;51.938;7.626;2023-05-19T08:21:38;18.15;;;10.18;;
40781;SDS011;26493;51.938;7.626;2023-05-19T08:24:06;19.30;;;10.90;;
40781;SDS011;26493;51.938;7.626;2023-05-19T08:26:32;17.48;;;10.50;;
40781;SDS011;26493;51.938;7.626;2023-05-19T08:28:58;17.05;;;10.82;;
40781;SDS011;26493;51.938;7.626;2023-05-19T08:31:24;18.40;;;11.45;;
40781;SDS011;26493;51.938;7.626;2023-05-19T08:33:50;18.33;;;11.70;;
40781;SDS011;26493;51.938;7.626;2023-05-19T08:36:16;18.40;;;11.68;;
40781;SDS011;26493;51.938;7.626;2023-05-19T08:38:42;20.05;;;11.82;;
40781;SDS011;26493;51.938;7.626;2023-05-19T08:41:09;18.50;;;11.38;;
40781;SDS011;26493;51.938;7.626;2023-05-19T08:43:35;19.48;;;11.30;;
40781;SDS011;26493;51.938;7.626;2023-05-19T08:46:01;19.20;;;11.90;;
40781;SDS011;26493;51.938;7.626;2023-05-19T08:48:28;17.55;;;11.45;;
40781;SDS011;26493;51.938;7.626;2023-05-19T08:53:41;18.65;;;11.20;;
40781;SDS011;26493;51.938;7.626;2023-05-19T08:56:11;17.58;;;11.32;;
40781;SDS011;26493;51.938;7.626;2023-05-19T08:58:38;17.95;;;11.30;;
40781;SDS011;26493;51.938;7.626;2023-05-19T09:01:05;20.52;;;11.90;;
40781;SDS011;26493;51.938;7.626;2023-05-19T09:03:32;20.80;;;12.52;;
40781;SDS011;26493;51.938;7.626;2023-05-19T09:06:06;17.98;;;10.98;;
40781;SDS011;26493;51.938;7.626;2023-05-19T09:08:33;18.13;;;11.57;;
40781;SDS011;26493;51.938;7.626;2023-05-19T09:10:59;18.67;;;11.00;;
40781;SDS011;26493;51.938;7.626;2023-05-19T09:13:26;16.48;;;11.20;;
40781;SDS011;26493;51.938;7.626;2023-05-19T09:15:52;16.48;;;11.10;;
40781;SDS011;26493;51.938;7.626;2023-05-19T09:18:18;20.50;;;11.30;;
40781;SDS011;26493;51.938;7.626;2023-05-19T09:20:44;17.88;;;11.40;;
40781;SDS011;26493;51.938;7.626;2023-05-19T09:23:11;21.38;;;11.18;;
40781;SDS011;26493;51.938;7.626;2023-05-19T09:25:50;20.13;;;11.65;;
40781;SDS011;26493;51.938;7.626;2023-05-19T09:30:54;18.50;;;11.55;;
40781;SDS011;26493;51.938;7.626;2023-05-19T09:33:23;17.40;;;11.60;;
40781;SDS011;26493;51.938;7.626;2023-05-19T09:35:49;22.15;;;12.40;;
40781;SDS011;26493;51.938;7.626;2023-05-19T09:38:18;18.42;;;11.65;;
40781;SDS011;26493;51.938;7.626;2023-05-19T09:40:47;18.38;;;12.13;;
40781;SDS011;26493;51.938;7.626;2023-05-19T09:45:39;16.25;;;11.07;;
40781;SDS011;26493;51.938;7.626;2023-05-19T09:48:05;19.02;;;12.65;;
40781;SDS011;26493;51.938;7.626;2023-05-19T09:50:31;19.77;;;12.40;;
40781;SDS011;26493;51.938;7.626;2023-05-19T09:52:58;18.27;;;11.90;;
40781;SDS011;26493;51.938;7.626;2023-05-19T09:55:25;18.90;;;11.65;;
40781;SDS011;26493;51.938;7.626;2023-05-19T09:57:51;18.58;;;11.60;;
40781;SDS011;26493;51.938;7.626;2023-05-19T10:00:20;16.90;;;11.57;;
40781;SDS011;26493;51.938;7.626;2023-05-19T10:02:47;17.85;;;12.52;;
40781;SDS011;26493;51.938;7.626;2023-05-19T10:05:15;17.77;;;11.63;;
40781;SDS011;26493;51.938;7.626;2023-05-19T10:07:44;25.85;;;11.50;;
40781;SDS011;26493;51.938;7.626;2023-05-19T10:12:38;21.92;;;12.32;;
40781;SDS011;26493;51.938;7.626;2023-05-19T10:15:11;19.85;;;11.57;;
40781;SDS011;26493;51.938;7.626;2023-05-19T10:17:38;18.27;;;11.93;;
40781;SDS011;26493;51.938;7.626;2023-05-19T10:20:06;16.55;;;11.73;;
40781;SDS011;26493;51.938;7.626;2023-05-19T10:22:33;16.45;;;11.60;;
40781;SDS011;26493;51.938;7.626;2023-05-19T10:24:59;19.67;;;12.32;;
40781;SDS011;26493;51.938;7.626;2023-05-19T10:27:25;18.40;;;11.50;;
40781;SDS011;26493;51.938;7.626;2023-05-19T10:29:51;19.33;;;12.50;;
40781;SDS011;26493;51.938;7.626;2023-05-19T10:32:22;17.42;;;12.43;;
40781;SDS011;26493;51.938;7.626;2023-05-19T10:35:04;16.67;;;11.70;;
40781;SDS011;26493;51.938;7.626;2023-05-19T10:40:13;18.45;;;12.45;;
40781;SDS011;26493;51.938;7.626;2023-05-19T10:42:48;20.05;;;12.93;;
40781;SDS011;26493;51.938;7.626;2023-05-19T10:45:19;17.70;;;12.15;;
40781;SDS011;26493;51.938;7.626;2023-05-19T10:47:48;18.25;;;11.88;;
40781;SDS011;26493;51.938;7.626;2023-05-19T10:50:15;18.48;;;12.32;;
40781;SDS011;26493;51.938;7.626;2023-05-19T10:52:41;18.85;;;12.00;;
40781;SDS011;26493;51.938;7.626;2023-05-19T10:55:09;20.80;;;12.75;;
40781;SDS011;26493;51.938;7.626;2023-05-19T10:57:53;19.10;;;12.40;;
40781;SDS011;26493;51.938;7.626;2023-05-19T11:00:28;16.92;;;11.82;;
40781;SDS011;26493;51.938;7.626;2023-05-19T11:03:10;16.33;;;12.00;;
40781;SDS011;26493;51.938;7.626;2023-05-19T11:05:37;18.77;;;13.35;;
40781;SDS011;26493;51.938;7.626;2023-05-19T11:08:04;20.75;;;12.55;;
40781;SDS011;26493;51.938;7.626;2023-05-19T11:10:35;17.95;;;12.18;;
40781;SDS011;26493;51.938;7.626;2023-05-19T11:13:01;18.23;;;12.50;;
40781;SDS011;26493;51.938;7.626;2023-05-19T11:15:28;19.50;;;12.68;;
40781;SDS011;26493;51.938;7.626;2023-05-19T11:17:58;18.40;;;12.45;;
40781;SDS011;26493;51.938;7.626;2023-05-19T11:20:27;18.77;;;12.70;;
40781;SDS011;26493;51.938;7.626;2023-05-19T11:23:00;18.83;;;12.77;;
40781;SDS011;26493;51.938;7.626;2023-05-19T11:25:45;20.90;;;12.38;;
40781;SDS011;26493;51.938;7.626;2023-05-19T11:28:14;17.45;;;13.20;;
40781;SDS011;26493;51.938;7.626;2023-05-19T11:30:41;18.02;;;13.27;;
40781;SDS011;26493;51.938;7.626;2023-05-19T11:33:08;19.92;;;13.73;;
40781;SDS011;26493;51.938;7.626;2023-05-19T11:35:34;18.90;;;13.25;;
40781;SDS011;26493;51.938;7.626;2023-05-19T11:38:01;17.50;;;12.98;;
40781;SDS011;26493;51.938;7.626;2023-05-19T11:40:27;16.98;;;12.90;;
40781;SDS011;26493;51.938;7.626;2023-05-19T11:42:54;16.67;;;12.10;;
40781;SDS011;26493;51.938;7.626;2023-05-19T11:45:26;17.65;;;12.55;;
40781;SDS011;26493;51.938;7.626;2023-05-19T11:47:53;17.52;;;12.95;;
40781;SDS011;26493;51.938;7.626;2023-05-19T11:50:23;17.35;;;12.43;;
40781;SDS011;26493;51.938;7.626;2023-05-19T11:52:49;19.10;;;13.18;;
40781;SDS011;26493;51.938;7.626;2023-05-19T11:55:19;19.60;;;12.60;;
40781;SDS011;26493;51.938;7.626;2023-05-19T12:00:24;18.10;;;13.43;;
40781;SDS011;26493;51.938;7.626;2023-05-19T12:02:51;17.83;;;12.60;;
40781;SDS011;26493;51.938;7.626;2023-05-19T12:05:21;17.65;;;12.90;;
40781;SDS011;26493;51.938;7.626;2023-05-19T12:07:47;16.85;;;13.07;;
40781;SDS011;26493;51.938;7.626;2023-05-19T12:10:15;17.40;;;13.07;;
40781;SDS011;26493;51.938;7.626;2023-05-19T12:12:41;19.30;;;12.93;;
40781;SDS011;26493;51.938;7.626;2023-05-19T12:15:09;18.63;;;14.27;;
40781;SDS011;26493;51.938;7.626;2023-05-19T12:17:35;19.45;;;13.00;;
40781;SDS011;26493;51.938;7.626;2023-05-19T12:20:01;17.20;;;13.60;;
40781;SDS011;26493;51.938;7.626;2023-05-19T12:22:28;19.15;;;13.68;;
40781;SDS011;26493;51.938;7.626;2023-05-19T12:24:54;17.73;;;13.93;;
40781;SDS011;26493;51.938;7.626;2023-05-19T12:27:24;17.92;;;12.90;;
40781;SDS011;26493;51.938;7.626;2023-05-19T12:29:53;18.38;;;13.32;;
40781;SDS011;26493;51.938;7.626;2023-05-19T12:32:26;18.92;;;13.43;;
40781;SDS011;26493;51.938;7.626;2023-05-19T12:34:55;18.92;;;13.45;;
40781;SDS011;26493;51.938;7.626;2023-05-19T12:37:21;17.95;;;13.02;;
40781;SDS011;26493;51.938;7.626;2023-05-19T12:39:47;18.02;;;13.02;;
40781;SDS011;26493;51.938;7.626;2023-05-19T12:42:14;17.20;;;12.60;;
40781;SDS011;26493;51.938;7.626;2023-05-19T12:44:47;17.63;;;12.48;;
40781;SDS011;26493;51.938;7.626;2023-05-19T12:47:17;18.13;;;13.10;;
40781;SDS011;26493;51.938;7.626;2023-05-19T12:49:55;17.55;;;12.70;;
40781;SDS011;26493;51.938;7.626;2023-05-19T12:52:22;17.98;;;13.45;;
40781;SDS011;26493;51.938;7.626;2023-05-19T12:54:48;18.88;;;13.60;;
40781;SDS011;26493;51.938;7.626;2023-05-19T12:57:16;17.83;;;12.32;;
40781;SDS011;26493;51.938;7.626;2023-05-19T12:59:42;17.42;;;12.50;;
40781;SDS011;26493;51.938;7.626;2023-05-19T13:02:08;18.55;;;13.18;;
40781;SDS011;26493;51.938;7.626;2023-05-19T13:04:34;17.92;;;12.77;;
40781;SDS011;26493;51.938;7.626;2023-05-19T13:07:00;17.50;;;12.85;;
40781;SDS011;26493;51.938;7.626;2023-05-19T13:09:26;19.42;;;12.82;;
40781;SDS011;26493;51.938;7.626;2023-05-19T13:11:52;16.65;;;12.93;;
40781;SDS011;26493;51.938;7.626;2023-05-19T13:14:19;18.70;;;13.32;;
40781;SDS011;26493;51.938;7.626;2023-05-19T13:16:45;17.63;;;12.70;;
40781;SDS011;26493;51.938;7.626;2023-05-19T13:19:16;17.40;;;12.20;;
40781;SDS011;26493;51.938;7.626;2023-05-19T13:21:42;16.85;;;12.10;;
40781;SDS011;26493;51.938;7.626;2023-05-19T13:26:36;16.85;;;13.02;;
40781;SDS011;26493;51.938;7.626;2023-05-19T13:29:02;18.27;;;12.93;;
40781;SDS011;26493;51.938;7.626;2023-05-19T13:31:28;20.80;;;13.00;;
40781;SDS011;26493;51.938;7.626;2023-05-19T13:33:54;17.85;;;13.07;;
40781;SDS011;26493;51.938;7.626;2023-05-19T13:36:20;17.10;;;12.85;;
40781;SDS011;26493;51.938;7.626;2023-05-19T13:38:46;18.50;;;12.98;;
40781;SDS011;26493;51.938;7.626;2023-05-19T13:41:12;19.13;;;13.50;;
40781;SDS011;26493;51.938;7.626;2023-05-19T13:43:38;17.77;;;13.20;;
40781;SDS011;26493;51.938;7.626;2023-05-19T13:46:04;19.58;;;12.95;;
40781;SDS011;26493;51.938;7.626;2023-05-19T13:48:30;18.05;;;12.63;;
40781;SDS011;26493;51.938;7.626;2023-05-19T13:50:56;17.50;;;13.05;;
40781;SDS011;26493;51.938;7.626;2023-05-19T13:53:23;18.05;;;12.48;;
40781;SDS011;26493;51.938;7.626;2023-05-19T13:55:50;18.75;;;13.05;;
40781;SDS011;26493;51.938;7.626;2023-05-19T13:58:19;17.38;;;13.07;;
40781;SDS011;26493;51.938;7.626;2023-05-19T14:00:45;16.55;;;13.10;;
40781;SDS011;26493;51.938;7.626;2023-05-19T14:03:11;18.25;;;13.50;;
40781;SDS011;26493;51.938;7.626;2023-05-19T14:05:39;16.38;;;13.07;;
40781;SDS011;26493;51.938;7.626;2023-05-19T14:08:06;17.98;;;13.50;;
40781;SDS011;26493;51.938;7.626;2023-05-19T14:10:32;17.42;;;13.57;;
40781;SDS011;26493;51.938;7.626;2023-05-19T14:12:58;18.83;;;13.20;;
40781;SDS011;26493;51.938;7.626;2023-05-19T14:15:25;18.17;;;13.43;;
40781;SDS011;26493;51.938;7.626;2023-05-19T14:17:51;19.02;;;13.10;;
40781;SDS011;26493;51.938;7.626;2023-05-19T14:20:17;19.55;;;13.25;;
40781;SDS011;26493;51.938;7.626;2023-05-19T14:22:43;16.58;;;13.05;;
40781;SDS011;26493;51.938;7.626;2023-05-19T14:25:09;17.73;;;13.13;;
40781;SDS011;26493;51.938;7.626;2023-05-19T14:27:35;16.38;;;13.00;;
40781;SDS011;26493;51.938;7.626;2023-05-19T14:30:03;16.55;;;13.20;;
40781;SDS011;26493;51.938;7.626;2023-05-19T14:32:29;18.75;;;13.10;;
40781;SDS011;26493;51.938;7.626;2023-05-19T14:34:56;17.65;;;13.18;;
40781;SDS011;26493;51.938;7.626;2023-05-19T14:37:22;17.50;;;13.40;;
40781;SDS011;26493;51.938;7.626;2023-05-19T14:39:50;17.05;;;13.30;;
40781;SDS011;26493;51.938;7.626;2023-05-19T14:42:16;16.83;;;13.50;;
40781;SDS011;26493;51.938;7.626;2023-05-19T14:44:42;16.80;;;13.55;;
40781;SDS011;26493;51.938;7.626;2023-05-19T14:47:08;17.98;;;14.07;;
40781;SDS011;26493;51.938;7.626;2023-05-19T14:49:35;16.75;;;13.75;;
40781;SDS011;26493;51.938;7.626;2023-05-19T14:52:01;17.65;;;13.35;;
40781;SDS011;26493;51.938;7.626;2023-05-19T14:54:27;16.40;;;13.55;;
40781;SDS011;26493;51.938;7.626;2023-05-19T14:56:52;18.20;;;13.43;;
40781;SDS011;26493;51.938;7.626;2023-05-19T14:59:18;15.80;;;12.80;;
40781;SDS011;26493;51.938;7.626;2023-05-19T15:01:45;17.42;;;13.23;;
40781;SDS011;26493;51.938;7.626;2023-05-19T15:04:11;16.73;;;13.48;;